Thursday, April 24, 2014, 9:34 AM EDT

KOFP, Hanover County Municipal

Location: Ashland, VA, United States Lat: 37.7
Local Time: 9:34 AM EDT (13:34 GMT) Lon: -77.433
Time Zone: US/Eastern Elev: 203 ft

Show me the last for .
Show Decoded

2014-04-24 08:54 METAR KOFP 241254Z AUTO VRB06KT 10SM CLR 10/M03 A3016 RMK AO2 SLP214 T01001028 =
2014-04-24 07:54 METAR KOFP 241154Z AUTO 32003KT 10SM CLR 07/00 A3014 RMK AO2 SLP206 T00670000
                 10089 20017 51025 =
2014-04-24 06:54 METAR KOFP 241054Z AUTO 00000KT 8SM CLR 02/01 A3012 RMK AO2 SLP199 T00170006 =
2014-04-24 05:54 METAR KOFP 240954Z AUTO 00000KT 10SM CLR 02/00 A3009 RMK AO2 SLP190 T00170000 =
2014-04-24 04:54 METAR KOFP 240854Z AUTO 00000KT 10SM CLR 03/M01 A3007 RMK AO2 SLP181 T00281006
                 51010 =
2014-04-24 03:54 METAR KOFP 240754Z AUTO 00000KT 10SM CLR 04/01 A3005 RMK AO2 SLP177 T00390006 =
2014-04-24 02:54 METAR KOFP 240654Z AUTO 00000KT 10SM CLR 06/01 A3005 RMK AO2 SLP175 T00560011 =
2014-04-24 01:54 METAR KOFP 240554Z AUTO VRB04KT 10SM CLR 08/00 A3004 RMK AO2 SLP170 T00830000
                 10156 20072 51012 =
2014-04-24 00:54 METAR KOFP 240454Z AUTO VRB05KT 10SM CLR 09/01 A3003 RMK AO2 SLP169 T00890006
                 401890083 =
2014-04-23 23:54 METAR KOFP 240354Z AUTO 00000KT 10SM CLR 08/01 A3002 RMK AO2 SLP164 T00830011 =
2014-04-23 22:54 METAR KOFP 240254Z AUTO 00000KT 10SM CLR 11/01 A3000 RMK AO2 SLP158 T01110006
                 51031 =
2014-04-23 21:54 METAR KOFP 240154Z AUTO VRB05KT 10SM CLR 13/01 A2998 RMK AO2 SLP150 T01280006 =
2014-04-23 20:54 METAR KOFP 240054Z AUTO 32004KT 10SM CLR 14/00 A2995 RMK AO2 SLP141 T01390000 =
2014-04-23 19:54 METAR KOFP 232354Z AUTO 32007KT 10SM CLR 16/M01 A2991 RMK AO2 SLP126 T01561011
                 10189 20156 53018 =
2014-04-23 18:54 METAR KOFP 232254Z AUTO 31012G17KT 10SM CLR 17/M01 A2987 RMK AO2 PK WND
                 30026/2239 SLP115 T01721011 =
2014-04-23 17:54 METAR KOFP 232154Z AUTO 33007G15KT 10SM FEW080 17/M01 A2986 RMK AO2 SLP111
                 T01721006 =
2014-04-23 16:54 METAR KOFP 232054Z AUTO 30016G21KT 10SM CLR 19/M01 A2985 RMK AO2 SLP108
                 T01891011 53007 =
2014-04-23 15:54 METAR KOFP 231954Z AUTO 31014G22KT 10SM FEW075 18/M01 A2984 RMK AO2 SLP103
                 T01831006 =
2014-04-23 13:54 METAR KOFP 231754Z AUTO 30014G28KT 10SM CLR 17/M01 A2983 RMK AO2 PK WND
                 30028/1745 SLP101 T01721006 10183 20117 55004 =
2014-04-23 12:54 METAR KOFP 231654Z AUTO 28010G20KT 10SM CLR 17/M01 A2983 RMK AO2 PK WND
                 29026/1616 SLP099 T01721006 =
2014-04-23 11:54 METAR KOFP 231554Z AUTO 31014G21KT 10SM CLR 17/M01 A2984 RMK AO2 PK WND
                 31026/1517 SLP103 T01671006 =
2014-04-23 10:54 METAR KOFP 231454Z AUTO 31013G25KT 290V010 10SM FEW060 16/M01 A2984 RMK AO2
                 SLP105 T01611011 51020 =
2014-04-23 09:54 METAR KOFP 231354Z AUTO 35012G22KT 310V030 10SM CLR 14/00 A2984 RMK AO2 SLP102
                 T01440000 =

Support USWX by starting your Amazon purchase here.